Time;durP1;ratioP1;P1;durP2;ratioP2;P2;SDS_P1;SDS_P2;PMS_P1;PMS_P2;Temp;Humidity;BMP_temperature;BMP_pressure;BME280_temperature;BME280_humidity;BME280_pressure;Samples;Min_cycle;Max_cycle;Signal;HPM_P1;HPM_P2
2023/02/16 00:00:28;;;;;;;31.37;24.23;;;;;;;;;;1031530;28;20386;-55
2023/02/16 00:00:59;;;;;;;25.42;21.90;;;;;;;;;;1031073;28;20265;-56
2023/02/16 00:01:31;;;;;;;28.80;23.77;;;;;;;;;;1031652;28;20026;-56
2023/02/16 00:02:02;;;;;;;24.13;21.25;;;;;;;;;;1030994;28;20027;-56
2023/02/16 00:02:33;;;;;;;28.83;23.42;;;;;;;;;;1031381;28;20030;-55
2023/02/16 00:03:04;;;;;;;26.48;23.05;;;;;;;;;;1031339;28;20050;-56
2023/02/16 00:03:35;;;;;;;26.83;22.63;;;;;;;;;;1031453;28;20081;-56
2023/02/16 00:04:12;;;;;;;26.60;22.07;;;;;;;;;;1031172;28;20037;-56
2023/02/16 00:04:44;;;;;;;26.77;22.42;;;;;;;;;;1029238;28;20280;-55
2023/02/16 00:05:25;;;;;;;29.77;23.50;;;;;;;;;;1027123;28;20081;-56
2023/02/16 00:05:56;;;;;;;26.05;22.25;;;;;;;;;;1030049;28;20257;-55
2023/02/16 00:06:28;;;;;;;30.23;24.23;;;;;;;;;;1031308;28;20190;-57
2023/02/16 00:06:59;;;;;;;26.23;22.98;;;;;;;;;;1031285;28;20026;-57
2023/02/16 00:07:30;;;;;;;29.40;23.83;;;;;;;;;;1031386;28;20104;-56
2023/02/16 00:08:01;;;;;;;26.48;23.67;;;;;;;;;;1031200;28;20257;-56
2023/02/16 00:08:32;;;;;;;26.80;22.38;;;;;;;;;;1031457;28;20034;-55
2023/02/16 00:09:03;;;;;;;27.02;22.58;;;;;;;;;;1031368;28;20106;-55
2023/02/16 00:09:34;;;;;;;25.25;22.20;;;;;;;;;;1031163;28;20014;-56
2023/02/16 00:10:05;;;;;;;27.27;22.90;;;;;;;;;;1031320;28;20022;-56
2023/02/16 00:10:37;;;;;;;25.38;22.27;;;;;;;;;;1031372;28;20025;-55
2023/02/16 00:14:10;;;;;;;27.08;21.90;;;;;;;;;;1030933;28;20516;-55
2023/02/16 00:14:41;;;;;;;28.35;22.73;;;;;;;;;;1030737;28;20125;-56
2023/02/16 00:15:17;;;;;;;27.80;23.53;;;;;;;;;;1031132;28;20049;-55
2023/02/16 00:15:48;;;;;;;28.38;24.17;;;;;;;;;;1030721;28;20261;-56
2023/02/16 00:16:20;;;;;;;27.97;23.10;;;;;;;;;;1031078;28;20018;-56
2023/02/16 00:16:52;;;;;;;28.63;22.30;;;;;;;;;;1031336;28;20292;-56
2023/02/16 00:17:23;;;;;;;30.02;23.98;;;;;;;;;;1031453;28;20044;-57
2023/02/16 00:17:55;;;;;;;28.63;24.67;;;;;;;;;;1030956;28;20045;-56
2023/02/16 00:18:25;;;;;;;27.98;23.63;;;;;;;;;;1031145;28;20709;-55
2023/02/16 00:18:56;;;;;;;30.23;24.63;;;;;;;;;;1030766;28;20528;-55
2023/02/16 00:19:33;;;;;;;27.90;23.13;;;;;;;;;;1028860;28;20010;-55
2023/02/16 00:20:06;;;;;;;28.45;22.95;;;;;;;;;;1026946;28;20293;-56
2023/02/16 00:20:37;;;;;;;27.23;23.05;;;;;;;;;;1027018;28;20074;-60
2023/02/16 00:21:08;;;;;;;27.07;23.23;;;;;;;;;;1029418;28;20093;-56
2023/02/16 00:21:39;;;;;;;28.45;24.05;;;;;;;;;;1031292;28;20661;-56
2023/02/16 00:22:10;;;;;;;30.00;23.83;;;;;;;;;;1031325;28;20018;-57
2023/02/16 00:22:41;;;;;;;26.92;22.90;;;;;;;;;;1031402;28;20320;-56
2023/02/16 00:23:12;;;;;;;26.50;23.58;;;;;;;;;;1031160;28;20015;-56
2023/02/16 00:23:43;;;;;;;29.77;24.05;;;;;;;;;;1031524;28;20457;-55
2023/02/16 00:24:14;;;;;;;26.38;22.45;;;;;;;;;;1027966;28;20093;-53
2023/02/16 00:24:45;;;;;;;26.80;23.10;;;;;;;;;;1027471;28;20030;-56
2023/02/16 00:25:16;;;;;;;28.10;23.80;;;;;;;;;;1027113;28;20026;-56
2023/02/16 00:25:47;;;;;;;27.02;23.02;;;;;;;;;;1027437;28;20250;-57
2023/02/16 00:26:20;;;;;;;28.60;24.00;;;;;;;;;;1030823;28;20559;-56
2023/02/16 00:26:51;;;;;;;25.33;22.38;;;;;;;;;;1030877;28;20280;-55
2023/02/16 00:27:22;;;;;;;28.25;23.05;;;;;;;;;;1031197;28;20015;-56
2023/02/16 00:27:53;;;;;;;27.23;23.55;;;;;;;;;;1030733;28;20018;-56
2023/02/16 00:28:24;;;;;;;27.08;23.13;;;;;;;;;;1031060;28;20338;-56
2023/02/16 00:28:59;;;;;;;28.42;24.38;;;;;;;;;;1031230;28;20026;-57
2023/02/16 00:29:30;;;;;;;27.98;23.08;;;;;;;;;;1031514;28;20059;-56
2023/02/16 00:30:02;;;;;;;31.40;24.83;;;;;;;;;;1031188;28;20066;-55
2023/02/16 00:30:33;;;;;;;28.23;23.88;;;;;;;;;;1031112;28;20018;-55
2023/02/16 00:31:04;;;;;;;28.23;24.10;;;;;;;;;;1031519;28;20026;-56
2023/02/16 00:31:35;;;;;;;26.83;23.90;;;;;;;;;;1031087;28;20019;-57
2023/02/16 00:32:06;;;;;;;28.93;22.17;;;;;;;;;;1031373;28;20030;-56
2023/02/16 00:32:37;;;;;;;27.70;23.52;;;;;;;;;;1031122;28;20265;-57
2023/02/16 00:33:18;;;;;;;25.10;21.90;;;;;;;;;;1031444;28;20557;-56
2023/02/16 00:33:49;;;;;;;28.42;23.92;;;;;;;;;;1027382;28;20489;-56
2023/02/16 00:34:41;;;;;;;27.33;23.27;;;;;;;;;;1027237;28;20026;-56
2023/02/16 00:35:15;;;;;;;26.85;22.77;;;;;;;;;;1029187;28;20064;-56
2023/02/16 00:35:47;;;;;;;30.70;23.30;;;;;;;;;;1031275;28;20389;-56
2023/02/16 00:36:18;;;;;;;27.85;24.00;;;;;;;;;;1031347;28;20033;-55
2023/02/16 00:36:49;;;;;;;28.45;23.60;;;;;;;;;;1029817;28;20030;-55
2023/02/16 00:37:20;;;;;;;29.00;24.08;;;;;;;;;;1027351;28;20101;-57
2023/02/16 00:37:51;;;;;;;28.40;24.15;;;;;;;;;;1027130;28;20029;-57
2023/02/16 00:38:22;;;;;;;28.45;24.40;;;;;;;;;;1027230;28;20443;-55
2023/02/16 00:38:53;;;;;;;26.97;24.03;;;;;;;;;;1027068;28;20554;-56
2023/02/16 00:39:25;;;;;;;25.90;22.17;;;;;;;;;;1027462;28;20274;-56
2023/02/16 00:39:55;;;;;;;26.52;23.25;;;;;;;;;;1027020;28;20254;-54
2023/02/16 00:40:26;;;;;;;27.40;23.88;;;;;;;;;;1030432;28;20026;-56
2023/02/16 00:40:58;;;;;;;26.02;22.65;;;;;;;;;;1027400;28;20027;-56
2023/02/16 00:42:19;;;;;;;28.20;24.58;;;;;;;;;;1027176;28;20508;-56
2023/02/16 00:42:50;;;;;;;27.20;23.83;;;;;;;;;;1028740;28;20084;-56
2023/02/16 00:43:24;;;;;;;26.88;22.90;;;;;;;;;;1031282;28;20089;-56
2023/02/16 00:43:55;;;;;;;27.50;23.17;;;;;;;;;;1027278;28;20035;-56
2023/02/16 00:44:26;;;;;;;27.83;23.08;;;;;;;;;;1027241;28;20026;-56
2023/02/16 00:44:57;;;;;;;29.88;23.42;;;;;;;;;;1027005;28;20430;-57
2023/02/16 00:45:29;;;;;;;25.55;22.30;;;;;;;;;;1029765;28;20027;-56
2023/02/16 00:46:00;;;;;;;27.75;24.08;;;;;;;;;;1031027;28;20027;-56
2023/02/16 00:46:31;;;;;;;25.65;22.85;;;;;;;;;;1031282;28;20019;-56
2023/02/16 00:47:22;;;;;;;27.60;23.55;;;;;;;;;;1030895;28;20022;-56
2023/02/16 00:47:53;;;;;;;27.60;22.83;;;;;;;;;;1026324;28;20085;-55
2023/02/16 00:48:24;;;;;;;26.73;22.67;;;;;;;;;;1027058;28;20113;-56
2023/02/16 00:48:55;;;;;;;26.85;23.40;;;;;;;;;;1029978;28;20018;-57
2023/02/16 00:49:26;;;;;;;30.05;24.70;;;;;;;;;;1031212;28;20023;-56
2023/02/16 00:49:57;;;;;;;26.95;23.60;;;;;;;;;;1031139;28;20022;-56
2023/02/16 00:50:32;;;;;;;28.38;23.17;;;;;;;;;;1031017;28;20041;-56
2023/02/16 00:51:03;;;;;;;28.42;23.30;;;;;;;;;;1031221;28;20064;-56
2023/02/16 00:51:34;;;;;;;28.05;24.63;;;;;;;;;;1031095;28;20040;-55
2023/02/16 00:52:22;;;;;;;28.17;23.75;;;;;;;;;;1031084;28;20665;-56
2023/02/16 00:52:54;;;;;;;30.50;25.45;;;;;;;;;;1031188;28;20029;-56
2023/02/16 00:53:25;;;;;;;27.63;23.75;;;;;;;;;;1031161;28;20421;-56
2023/02/16 00:53:56;;;;;;;29.03;24.17;;;;;;;;;;1031062;28;20556;-56
2023/02/16 00:54:27;;;;;;;28.65;24.63;;;;;;;;;;1031061;28;20289;-56
2023/02/16 00:54:58;;;;;;;28.63;23.40;;;;;;;;;;1031096;28;20014;-55
2023/02/16 00:55:31;;;;;;;28.40;24.85;;;;;;;;;;1031098;28;20097;-55
2023/02/16 00:56:02;;;;;;;26.20;22.23;;;;;;;;;;1029296;28;20477;-56
2023/02/16 00:56:33;;;;;;;27.75;23.15;;;;;;;;;;1027063;28;20015;-56
2023/02/16 00:57:04;;;;;;;27.35;23.17;;;;;;;;;;1027123;28;20019;-56
2023/02/16 00:57:37;;;;;;;30.77;24.90;;;;;;;;;;1028541;28;20026;-55
2023/02/16 00:58:13;;;;;;;25.95;22.35;;;;;;;;;;1031181;28;20095;-56
2023/02/16 00:58:44;;;;;;;27.98;23.60;;;;;;;;;;1031062;28;20060;-56
2023/02/16 00:59:17;;;;;;;25.40;22.73;;;;;;;;;;1031347;28;20029;-56
2023/02/16 00:59:49;;;;;;;29.33;25.33;;;;;;;;;;1027501;28;20022;-56
2023/02/16 01:00:28;;;;;;;28.98;24.52;;;;;;;;;;1027037;28;20402;-56
2023/02/16 01:00:59;;;;;;;;;;;;;;;;;;1029288;28;20042;-55
2023/02/16 01:01:31;;;;;;;26.67;22.80;;;;;;;;;;1031294;28;19902;-56
2023/02/16 01:02:02;;;;;;;28.30;23.73;;;;;;;;;;1030764;28;20069;-56
2023/02/16 01:02:33;;;;;;;27.48;23.15;;;;;;;;;;1030757;28;20026;-56
2023/02/16 01:03:09;;;;;;;26.05;23.08;;;;;;;;;;1030733;28;20077;-56
2023/02/16 01:03:40;;;;;;;30.67;24.40;;;;;;;;;;1030939;28;20061;-55
2023/02/16 01:04:14;;;;;;;27.50;22.88;;;;;;;;;;1030725;28;20077;-56
2023/02/16 01:04:45;;;;;;;30.02;24.75;;;;;;;;;;1031039;28;20033;-57
2023/02/16 01:05:16;;;;;;;25.83;22.38;;;;;;;;;;1030851;28;20062;-56
2023/02/16 01:05:47;;;;;;;27.92;24.20;;;;;;;;;;1030837;28;20335;-56
2023/02/16 01:11:22;;;;;;;24.73;22.00;;;;;;;;;;1028644;28;20093;-56
2023/02/16 01:11:54;;;;;;;30.98;23.42;;;;;;;;;;1031096;28;20061;-56
2023/02/16 01:12:25;;;;;;;27.00;22.90;;;;;;;;;;1030783;28;20699;-56
2023/02/16 01:12:56;;;;;;;25.48;22.48;;;;;;;;;;1031082;28;20519;-56
2023/02/16 01:13:28;;;;;;;26.33;22.63;;;;;;;;;;1031015;28;20042;-56
2023/02/16 01:13:59;;;;;;;24.60;22.00;;;;;;;;;;1031104;28;20093;-55
2023/02/16 01:14:31;;;;;;;25.60;22.08;;;;;;;;;;1027792;28;20049;-57
2023/02/16 01:15:02;;;;;;;23.92;21.30;;;;;;;;;;1027039;28;20109;-56
2023/02/16 01:15:33;;;;;;;27.17;22.90;;;;;;;;;;1027061;28;20084;-55
2023/02/16 01:16:04;;;;;;;25.25;22.15;;;;;;;;;;1031126;28;20037;-56
2023/02/16 01:16:37;;;;;;;26.70;22.98;;;;;;;;;;1030771;28;20022;-56
2023/02/16 01:17:09;;;;;;;26.60;22.77;;;;;;;;;;1031245;28;20026;-55
2023/02/16 01:17:40;;;;;;;28.40;23.58;;;;;;;;;;1030325;28;20512;-57
2023/02/16 01:18:12;;;;;;;28.95;24.40;;;;;;;;;;1030750;28;20026;-56
2023/02/16 01:18:44;;;;;;;29.70;24.70;;;;;;;;;;1030733;28;20101;-56
2023/02/16 01:19:15;;;;;;;27.00;23.75;;;;;;;;;;1030814;28;20073;-57
2023/02/16 01:19:46;;;;;;;27.98;22.95;;;;;;;;;;1028767;28;20080;-56
2023/02/16 01:20:18;;;;;;;26.35;22.08;;;;;;;;;;1027194;28;20035;-56
2023/02/16 01:20:49;;;;;;;29.77;24.35;;;;;;;;;;1026586;28;20114;-57
2023/02/16 01:21:21;;;;;;;27.40;23.60;;;;;;;;;;1030852;28;20034;-56
2023/02/16 01:21:52;;;;;;;25.50;22.80;;;;;;;;;;1030847;28;20264;-57
2023/02/16 01:22:23;;;;;;;25.67;22.70;;;;;;;;;;1030982;28;20038;-56
2023/02/16 01:22:54;;;;;;;27.10;23.77;;;;;;;;;;1030627;28;20265;-57
2023/02/16 01:23:25;;;;;;;27.77;23.30;;;;;;;;;;1031006;28;20046;-57
2023/02/16 01:23:56;;;;;;;27.45;23.42;;;;;;;;;;1030700;28;20032;-57
2023/02/16 01:24:27;;;;;;;27.35;23.33;;;;;;;;;;1030878;28;20041;-56
2023/02/16 01:24:58;;;;;;;28.35;24.27;;;;;;;;;;1029984;28;20117;-55
2023/02/16 01:25:29;;;;;;;26.85;22.90;;;;;;;;;;1031069;28;20030;-55
2023/02/16 01:26:00;;;;;;;27.75;23.83;;;;;;;;;;1030582;28;20034;-57
2023/02/16 01:26:33;;;;;;;27.25;23.83;;;;;;;;;;1030755;28;20035;-56
2023/02/16 01:27:04;;;;;;;26.27;23.45;;;;;;;;;;1030896;28;20030;-56
2023/02/16 01:27:38;;;;;;;26.83;23.50;;;;;;;;;;1030867;28;20022;-55
2023/02/16 01:28:16;;;;;;;29.08;24.35;;;;;;;;;;1030537;28;20262;-57
2023/02/16 01:28:47;;;;;;;28.25;23.88;;;;;;;;;;1030694;28;20043;-56
2023/02/16 01:29:19;;;;;;;27.15;24.30;;;;;;;;;;1029998;28;20109;-56
2023/02/16 01:29:50;;;;;;;28.40;24.52;;;;;;;;;;1031047;28;20131;-56
2023/02/16 01:30:22;;;;;;;27.57;23.17;;;;;;;;;;1026686;28;20026;-56
2023/02/16 01:30:53;;;;;;;31.88;24.17;;;;;;;;;;1026911;28;20781;-56
2023/02/16 01:31:24;;;;;;;28.13;23.70;;;;;;;;;;1026639;28;20642;-56
2023/02/16 01:31:55;;;;;;;27.87;24.87;;;;;;;;;;1029774;28;20212;-56
2023/02/16 01:32:26;;;;;;;28.58;23.65;;;;;;;;;;1030765;28;20368;-57
2023/02/16 01:32:57;;;;;;;26.93;23.63;;;;;;;;;;1030909;28;20112;-55
2023/02/16 01:33:28;;;;;;;27.65;24.65;;;;;;;;;;1030613;28;20289;-56
2023/02/16 01:33:59;;;;;;;28.02;23.98;;;;;;;;;;1030483;28;20629;-55
2023/02/16 01:34:30;;;;;;;27.48;23.00;;;;;;;;;;1030419;28;20022;-56
2023/02/16 01:35:01;;;;;;;26.92;23.95;;;;;;;;;;1030424;28;20023;-56
2023/02/16 01:35:33;;;;;;;27.90;24.85;;;;;;;;;;1030546;28;20033;-55
2023/02/16 01:36:04;;;;;;;28.30;23.55;;;;;;;;;;1030923;28;20027;-56
2023/02/16 01:36:43;;;;;;;25.17;22.10;;;;;;;;;;1030791;28;20128;-56
2023/02/16 01:37:14;;;;;;;;;;;;;;;;;;1027604;28;20675;-56
2023/02/16 01:37:45;;;;;;;28.05;23.10;;;;;;;;;;1026919;28;20366;-55
2023/02/16 01:38:21;;;;;;;24.35;21.73;;;;;;;;;;1027002;28;20030;-56
2023/02/16 01:38:52;;;;;;;24.83;22.17;;;;;;;;;;1027238;28;20133;-56
2023/02/16 01:39:23;;;;;;;28.67;23.70;;;;;;;;;;1027058;28;20031;-56
2023/02/16 01:39:54;;;;;;;27.43;23.50;;;;;;;;;;1026976;28;20022;-56
2023/02/16 01:40:34;;;;;;;27.25;23.30;;;;;;;;;;1029934;28;20887;-55
2023/02/16 01:41:21;;;;;;;27.63;23.60;;;;;;;;;;1027232;28;20022;-56
2023/02/16 01:41:52;;;;;;;29.30;23.52;;;;;;;;;;1027821;28;20034;-56
2023/02/16 01:42:23;;;;;;;25.17;21.97;;;;;;;;;;1031189;28;20041;-56
2023/02/16 01:42:57;;;;;;;25.73;21.77;;;;;;;;;;1030730;28;20266;-55
2023/02/16 01:43:42;;;;;;;29.52;23.15;;;;;;;;;;1031217;28;20032;-57
2023/02/16 01:44:16;;;;;;;28.00;22.67;;;;;;;;;;1026955;28;20031;-56
2023/02/16 01:45:13;;;;;;;26.80;22.73;;;;;;;;;;1026898;28;20038;-56
2023/02/16 01:45:46;;;;;;;26.33;23.05;;;;;;;;;;1025818;28;20583;-56
2023/02/16 01:46:20;;;;;;;27.25;23.52;;;;;;;;;;1027124;28;20109;-55
2023/02/16 01:46:54;;;;;;;27.67;22.70;;;;;;;;;;1026952;28;20162;-56
2023/02/16 01:47:45;;;;;;;26.55;22.55;;;;;;;;;;1027286;28;20038;-56
2023/02/16 01:48:20;;;;;;;25.73;22.98;;;;;;;;;;1026724;28;20035;-56
2023/02/16 01:48:51;;;;;;;27.70;23.23;;;;;;;;;;1029540;28;20026;-56
2023/02/16 01:49:22;;;;;;;28.20;23.83;;;;;;;;;;1029223;28;20485;-55
2023/02/16 01:49:53;;;;;;;25.75;22.10;;;;;;;;;;1030489;28;20486;-55
2023/02/16 01:50:26;;;;;;;26.27;23.02;;;;;;;;;;1030575;28;20121;-55
2023/02/16 01:51:16;;;;;;;26.63;23.48;;;;;;;;;;1030707;28;20382;-56
2023/02/16 01:51:53;;;;;;;33.47;23.20;;;;;;;;;;1030916;28;20486;-57
2023/02/16 01:52:32;;;;;;;27.67;23.02;;;;;;;;;;1030775;28;20022;-56
2023/02/16 01:53:12;;;;;;;28.73;24.00;;;;;;;;;;1030837;28;20019;-55
2023/02/16 01:53:45;;;;;;;27.45;23.13;;;;;;;;;;1030942;28;20029;-56
2023/02/16 01:54:26;;;;;;;26.55;22.63;;;;;;;;;;1030748;28;20041;-56
2023/02/16 01:55:35;;;;;;;27.50;23.48;;;;;;;;;;1031000;28;20058;-56
2023/02/16 01:56:14;;;;;;;26.88;21.83;;;;;;;;;;1020508;29;20031;-55
2023/02/16 01:56:47;;;;;;;25.67;22.25;;;;;;;;;;1022339;29;20034;-56
2023/02/16 01:57:21;;;;;;;26.95;22.85;;;;;;;;;;1021227;29;20070;-55
2023/02/16 01:57:52;;;;;;;29.42;23.27;;;;;;;;;;1022309;29;21205;-56
2023/02/16 01:58:39;;;;;;;28.17;23.30;;;;;;;;;;1021842;29;20385;-57
2023/02/16 01:59:17;;;;;;;25.33;21.27;;;;;;;;;;1018320;29;20259;-56
2023/02/16 01:59:48;;;;;;;26.27;22.52;;;;;;;;;;1021254;29;20085;-56
2023/02/16 02:00:38;;;;;;;26.13;23.00;;;;;;;;;;1022167;29;20429;-57
2023/02/16 02:01:15;;;;;;;29.02;23.67;;;;;;;;;;1022121;29;20035;-55
2023/02/16 02:01:46;;;;;;;30.15;24.27;;;;;;;;;;1022258;29;20027;-57
2023/02/16 02:02:22;;;;;;;26.50;23.57;;;;;;;;;;1030780;28;20117;-55
2023/02/16 02:05:33;;;;;;;26.55;23.65;;;;;;;;;;1030433;28;20258;-56
2023/02/16 02:05:34;;;;;;;27.08;22.42;;;;;;;;;;1031265;28;20108;-55
2023/02/16 02:06:07;;;;;;;28.15;23.80;;;;;;;;;;1030485;28;20014;-55
2023/02/16 02:06:38;;;;;;;30.35;23.88;;;;;;;;;;1027788;28;20657;-56
2023/02/16 02:07:33;;;;;;;28.52;24.13;;;;;;;;;;1026677;28;20497;-56
2023/02/16 02:08:11;;;;;;;26.27;22.45;;;;;;;;;;1021093;28;20095;-57
2023/02/16 02:08:42;;;;;;;29.17;22.65;;;;;;;;;;1026983;28;20045;-56
2023/02/16 02:09:18;;;;;;;27.23;23.20;;;;;;;;;;1026716;28;20026;-55
2023/02/16 02:09:57;;;;;;;26.73;23.40;;;;;;;;;;1026865;28;20286;-56
2023/02/16 02:10:43;;;;;;;27.67;23.77;;;;;;;;;;1026941;28;20026;-56
2023/02/16 02:11:17;;;;;;;27.58;22.80;;;;;;;;;;1026554;28;20034;-57
2023/02/16 02:11:56;;;;;;;25.27;22.58;;;;;;;;;;1030659;28;20030;-56
2023/02/16 02:12:32;;;;;;;28.38;23.98;;;;;;;;;;1030611;28;20370;-55
2023/02/16 02:13:16;;;;;;;28.90;23.58;;;;;;;;;;1030691;28;20022;-56
2023/02/16 02:13:47;;;;;;;26.85;23.35;;;;;;;;;;1026841;28;20030;-56
2023/02/16 02:14:30;;;;;;;27.83;22.30;;;;;;;;;;1026678;28;20019;-57
2023/02/16 02:15:01;;;;;;;28.35;23.08;;;;;;;;;;1028880;28;20257;-55
2023/02/16 02:15:33;;;;;;;27.75;23.25;;;;;;;;;;1030631;28;20014;-55
2023/02/16 02:16:05;;;;;;;26.95;22.60;;;;;;;;;;1029151;28;20023;-57
2023/02/16 02:16:36;;;;;;;28.08;22.73;;;;;;;;;;1027721;28;20820;-55
2023/02/16 02:17:12;;;;;;;25.33;22.30;;;;;;;;;;1030967;28;20845;-55
2023/02/16 02:17:43;;;;;;;29.70;24.17;;;;;;;;;;1030831;28;20076;-56
2023/02/16 02:18:14;;;;;;;26.30;23.23;;;;;;;;;;1030662;28;20157;-55
2023/02/16 02:18:45;;;;;;;28.63;23.88;;;;;;;;;;1030623;28;20042;-57
2023/02/16 02:19:16;;;;;;;26.90;23.43;;;;;;;;;;1030867;28;20469;-56
2023/02/16 02:20:04;;;;;;;26.33;22.92;;;;;;;;;;1030755;28;20280;-57
2023/02/16 02:23:44;;;;;;;29.02;22.80;;;;;;;;;;1029903;28;20164;-57
2023/02/16 02:24:15;;;;;;;27.05;23.55;;;;;;;;;;1030721;28;20077;-56
2023/02/16 02:24:59;;;;;;;25.85;22.10;;;;;;;;;;1030806;28;20040;-57
2023/02/16 02:25:55;;;;;;;25.02;21.65;;;;;;;;;;1027701;28;20042;-56
2023/02/16 02:26:45;;;;;;;30.02;23.92;;;;;;;;;;1030887;28;20014;-57
2023/02/16 02:27:26;;;;;;;26.77;22.95;;;;;;;;;;1026694;28;20058;-55
2023/02/16 02:28:03;;;;;;;26.15;22.60;;;;;;;;;;1026765;28;20061;-56
2023/02/16 02:28:44;;;;;;;26.27;22.48;;;;;;;;;;1030565;28;20060;-56
2023/02/16 02:29:15;;;;;;;28.20;23.35;;;;;;;;;;1030587;28;20084;-57
2023/02/16 02:29:52;;;;;;;26.20;22.35;;;;;;;;;;1031002;28;20053;-56
2023/02/16 02:30:26;;;;;;;26.05;23.20;;;;;;;;;;1030200;28;20023;-56
2023/02/16 02:31:12;;;;;;;27.58;23.33;;;;;;;;;;1030715;28;20648;-56
2023/02/16 02:31:46;;;;;;;27.05;23.50;;;;;;;;;;1030879;28;20109;-57
2023/02/16 02:32:28;;;;;;;27.30;22.67;;;;;;;;;;1030362;28;20118;-55
2023/02/16 02:33:18;;;;;;;27.35;22.55;;;;;;;;;;1030879;28;20023;-55
2023/02/16 02:34:11;;;;;;;26.83;23.02;;;;;;;;;;1030637;28;20180;-56
2023/02/16 02:34:54;;;;;;;27.33;22.58;;;;;;;;;;1031015;28;20042;-55
2023/02/16 02:35:34;;;;;;;26.42;21.17;;;;;;;;;;1030692;28;20120;-56
2023/02/16 02:36:21;;;;;;;26.17;22.75;;;;;;;;;;1030735;28;20022;-56
2023/02/16 02:36:55;;;;;;;28.10;23.35;;;;;;;;;;1030844;28;20018;-55
2023/02/16 02:37:31;;;;;;;29.40;23.25;;;;;;;;;;1030892;28;20046;-56
2023/02/16 02:38:09;;;;;;;26.52;22.90;;;;;;;;;;1030801;28;20126;-56
2023/02/16 02:38:47;;;;;;;29.52;23.33;;;;;;;;;;1030407;28;20018;-56
2023/02/16 02:39:25;;;;;;;26.42;23.30;;;;;;;;;;1030803;28;20425;-56
2023/02/16 02:39:56;;;;;;;;;;;;;;;;;;1031305;28;20019;-56
2023/02/16 02:40:33;;;;;;;27.50;22.17;;;;;;;;;;1030706;28;20000;-56
2023/02/16 02:41:10;;;;;;;25.67;22.35;;;;;;;;;;1028248;28;20022;-55
2023/02/16 02:42:02;;;;;;;25.92;21.75;;;;;;;;;;1026607;28;20026;-57
2023/02/16 02:42:52;;;;;;;29.17;23.67;;;;;;;;;;1026504;28;20033;-56
2023/02/16 02:43:40;;;;;;;29.40;22.83;;;;;;;;;;1026876;28;20434;-56
2023/02/16 02:44:13;;;;;;;26.77;22.70;;;;;;;;;;1027404;28;20030;-56
2023/02/16 02:44:52;;;;;;;26.25;22.70;;;;;;;;;;1026750;28;20019;-55
2023/02/16 02:45:29;;;;;;;27.05;23.45;;;;;;;;;;1030894;28;20022;-56
2023/02/16 02:46:06;;;;;;;26.08;22.77;;;;;;;;;;1026348;28;20047;-56
2023/02/16 02:46:38;;;;;;;26.85;22.58;;;;;;;;;;1026875;28;20038;-57
2023/02/16 02:47:09;;;;;;;25.88;21.85;;;;;;;;;;1026679;28;20599;-55
2023/02/16 02:47:41;;;;;;;24.67;21.70;;;;;;;;;;1030879;28;20551;-57
2023/02/16 02:48:12;;;;;;;26.38;22.90;;;;;;;;;;1030533;28;20022;-55
2023/02/16 02:48:43;;;;;;;28.70;22.80;;;;;;;;;;1030699;28;20026;-56
2023/02/16 02:49:14;;;;;;;26.77;22.00;;;;;;;;;;1030252;28;20522;-57
2023/02/16 02:49:49;;;;;;;25.40;21.35;;;;;;;;;;1030777;28;20025;-56
2023/02/16 02:50:23;;;;;;;27.80;22.33;;;;;;;;;;1030475;28;20030;-56
2023/02/16 02:51:27;;;;;;;29.77;24.40;;;;;;;;;;1030479;28;20088;-56
2023/02/16 02:51:59;;;;;;;23.35;20.88;;;;;;;;;;1026520;28;20022;-56
2023/02/16 02:52:30;;;;;;;26.67;22.63;;;;;;;;;;1028770;28;20038;-56
2023/02/16 02:53:03;;;;;;;28.73;23.73;;;;;;;;;;1030497;28;20034;-55
2023/02/16 02:53:36;;;;;;;24.83;22.08;;;;;;;;;;1030883;28;20387;-57
2023/02/16 03:00:46;;;;;;;28.10;23.02;;;;;;;;;;1025888;28;20089;-56
2023/02/16 03:01:18;;;;;;;23.45;20.85;;;;;;;;;;1029675;28;20036;-56
2023/02/16 03:01:52;;;;;;;24.52;21.90;;;;;;;;;;1030575;28;20031;-56
2023/02/16 03:02:23;;;;;;;26.23;23.25;;;;;;;;;;1030759;28;20030;-56
2023/02/16 03:02:57;;;;;;;25.17;21.52;;;;;;;;;;1030301;28;20025;-56
2023/02/16 03:03:31;;;;;;;26.77;23.48;;;;;;;;;;1030760;28;20429;-56
2023/02/16 03:04:02;;;;;;;26.40;22.75;;;;;;;;;;1030599;28;20019;-57
2023/02/16 03:04:33;;;;;;;27.23;23.85;;;;;;;;;;1030453;28;20059;-56
2023/02/16 03:05:05;;;;;;;27.30;22.48;;;;;;;;;;1030558;28;20026;-56
2023/02/16 03:05:37;;;;;;;29.67;22.92;;;;;;;;;;1030634;28;20053;-57
2023/02/16 03:06:17;;;;;;;24.42;21.80;;;;;;;;;;1030346;28;20117;-56
2023/02/16 03:06:49;;;;;;;27.52;23.00;;;;;;;;;;1030545;28;20037;-56
2023/02/16 03:07:45;;;;;;;26.73;23.33;;;;;;;;;;1030701;28;20050;-57
2023/02/16 03:08:16;;;;;;;27.88;23.02;;;;;;;;;;1030364;28;20397;-56
2023/02/16 03:08:49;;;;;;;27.88;23.33;;;;;;;;;;1030665;28;20140;-56
2023/02/16 03:09:20;;;;;;;28.17;23.23;;;;;;;;;;1030585;28;20385;-57
2023/02/16 03:12:43;;;;;;;27.98;23.23;;;;;;;;;;1030529;28;20010;-57
2023/02/16 03:12:45;;;;;;;27.25;22.20;;;;;;;;;;1026675;28;20101;-57
2023/02/16 03:13:28;;;;;;;27.27;23.08;;;;;;;;;;1026442;28;20101;-56
2023/02/16 03:14:02;;;;;;;26.35;22.65;;;;;;;;;;1026573;28;20018;-55
2023/02/16 03:14:42;;;;;;;26.30;22.20;;;;;;;;;;1029100;28;20019;-56
2023/02/16 03:15:16;;;;;;;32.03;23.80;;;;;;;;;;1030423;28;20488;-55
2023/02/16 03:15:48;;;;;;;27.00;24.20;;;;;;;;;;1030653;28;20020;-56
2023/02/16 03:16:21;;;;;;;26.58;22.73;;;;;;;;;;1030376;28;20377;-56
2023/02/16 03:29:38;;;;;;;26.92;21.70;;;;;;;;;;1027596;28;20104;-57
2023/02/16 03:30:10;;;;;;;27.58;23.60;;;;;;;;;;1029502;28;20037;-55
2023/02/16 03:30:42;;;;;;;29.27;23.65;;;;;;;;;;1030534;28;20037;-56
2023/02/16 03:31:18;;;;;;;28.60;24.20;;;;;;;;;;1029492;28;20486;-56
2023/02/16 03:31:49;;;;;;;26.33;23.23;;;;;;;;;;1026672;28;20042;-56
2023/02/16 03:32:21;;;;;;;27.63;22.75;;;;;;;;;;1026482;28;20042;-56
2023/02/16 03:32:52;;;;;;;26.30;22.58;;;;;;;;;;1026774;28;20094;-56
2023/02/16 03:33:23;;;;;;;26.50;23.48;;;;;;;;;;1026398;28;20038;-55
2023/02/16 03:33:54;;;;;;;25.05;22.35;;;;;;;;;;1026435;28;20027;-56
2023/02/16 03:34:26;;;;;;;26.52;23.63;;;;;;;;;;1026350;28;20647;-56
2023/02/16 03:34:57;;;;;;;27.05;22.70;;;;;;;;;;1027179;28;20110;-55
2023/02/16 03:35:28;;;;;;;26.35;22.48;;;;;;;;;;1030501;28;20105;-56
2023/02/16 03:35:59;;;;;;;26.33;22.95;;;;;;;;;;1030552;28;20027;-55
2023/02/16 03:36:32;;;;;;;27.48;22.58;;;;;;;;;;1030179;28;20037;-56
2023/02/16 03:37:04;;;;;;;27.85;24.13;;;;;;;;;;1030598;28;20022;-56
2023/02/16 03:37:35;;;;;;;28.15;23.95;;;;;;;;;;1030608;28;20874;-57
2023/02/16 03:38:06;;;;;;;26.48;23.10;;;;;;;;;;1030677;28;20125;-56
2023/02/16 03:38:38;;;;;;;27.70;23.02;;;;;;;;;;1030356;28;20026;-55
2023/02/16 03:39:09;;;;;;;25.05;22.38;;;;;;;;;;1030771;28;20026;-55
2023/02/16 03:40:33;;;;;;;26.58;23.17;;;;;;;;;;1026463;28;20518;-56
2023/02/16 03:41:05;;;;;;;25.90;21.73;;;;;;;;;;1026463;28;20022;-57
2023/02/16 03:41:41;;;;;;;26.70;23.48;;;;;;;;;;1026396;28;20054;-55
2023/02/16 03:42:12;;;;;;;25.90;21.73;;;;;;;;;;1026573;28;20085;-55
2023/02/16 03:42:50;;;;;;;26.92;23.70;;;;;;;;;;1026537;28;20053;-57
2023/02/16 03:43:24;;;;;;;26.92;23.70;;;;;;;;;;1026699;28;20033;-55
2023/02/16 03:43:55;;;;;;;26.10;22.58;;;;;;;;;;1026164;28;20026;-56
2023/02/16 03:44:26;;;;;;;24.43;21.77;;;;;;;;;;1026665;28;20077;-56
2023/02/16 03:44:57;;;;;;;27.00;22.83;;;;;;;;;;1026207;28;20817;-56
2023/02/16 03:45:28;;;;;;;24.83;21.90;;;;;;;;;;1029888;28;20541;-57
2023/02/16 03:45:59;;;;;;;25.55;22.65;;;;;;;;;;1029493;28;20042;-55
2023/02/16 03:46:30;;;;;;;25.13;22.42;;;;;;;;;;1026743;28;20046;-56
2023/02/16 03:47:01;;;;;;;25.33;22.58;;;;;;;;;;1028253;28;20026;-56
2023/02/16 03:47:32;;;;;;;25.00;22.02;;;;;;;;;;1030890;28;20022;-56
2023/02/16 03:48:03;;;;;;;26.88;22.73;;;;;;;;;;1030534;28;20089;-56
2023/02/16 03:48:34;;;;;;;25.73;23.02;;;;;;;;;;1030375;28;20026;-56
2023/02/16 03:49:05;;;;;;;26.23;22.57;;;;;;;;;;1030362;28;20125;-56
2023/02/16 03:49:36;;;;;;;26.30;22.70;;;;;;;;;;1030488;28;20288;-56
2023/02/16 03:50:07;;;;;;;24.23;21.63;;;;;;;;;;1030338;28;20015;-56
2023/02/16 03:50:38;;;;;;;24.65;21.88;;;;;;;;;;1030627;28;20014;-56
2023/02/16 03:51:09;;;;;;;26.15;23.38;;;;;;;;;;1030098;28;20023;-56
2023/02/16 03:51:40;;;;;;;28.43;25.10;;;;;;;;;;1030575;28;20021;-57
2023/02/16 03:52:11;;;;;;;25.83;22.48;;;;;;;;;;1030203;28;20896;-55
2023/02/16 03:52:42;;;;;;;26.77;23.45;;;;;;;;;;1030679;28;20114;-55
2023/02/16 03:53:13;;;;;;;27.45;24.55;;;;;;;;;;1030050;28;20505;-56
2023/02/16 03:53:44;;;;;;;26.17;23.33;;;;;;;;;;1030300;28;20501;-56
2023/02/16 03:54:15;;;;;;;26.77;23.20;;;;;;;;;;1029884;28;20033;-57
2023/02/16 03:54:46;;;;;;;26.88;23.98;;;;;;;;;;1030210;28;20049;-56
2023/02/16 03:55:17;;;;;;;26.20;23.40;;;;;;;;;;1030360;28;20022;-56